sensor_id;sensor_type;location;lat;lon;timestamp;P1;durP1;ratioP1;P2;durP2;ratioP2
50779;SDS011;36748;37.428;-121.972;2022-09-14T00:01:18;6.80;;;1.73;;
50779;SDS011;36748;37.428;-121.972;2022-09-14T00:03:46;9.83;;;1.90;;
50779;SDS011;36748;37.428;-121.972;2022-09-14T00:06:14;6.43;;;1.90;;
50779;SDS011;36748;37.428;-121.972;2022-09-14T00:08:41;8.50;;;2.08;;
50779;SDS011;36748;37.428;-121.972;2022-09-14T00:11:12;7.28;;;2.35;;
50779;SDS011;36748;37.428;-121.972;2022-09-14T00:13:39;9.45;;;1.65;;
50779;SDS011;36748;37.428;-121.972;2022-09-14T00:16:08;8.23;;;2.35;;
50779;SDS011;36748;37.428;-121.972;2022-09-14T00:18:37;11.10;;;2.20;;
50779;SDS011;36748;37.428;-121.972;2022-09-14T00:21:07;8.88;;;2.67;;
50779;SDS011;36748;37.428;-121.972;2022-09-14T00:23:35;5.68;;;2.10;;
50779;SDS011;36748;37.428;-121.972;2022-09-14T00:26:07;6.72;;;2.20;;
50779;SDS011;36748;37.428;-121.972;2022-09-14T00:28:42;7.15;;;1.90;;
50779;SDS011;36748;37.428;-121.972;2022-09-14T00:31:09;3.08;;;1.77;;
50779;SDS011;36748;37.428;-121.972;2022-09-14T00:33:36;4.75;;;2.10;;
50779;SDS011;36748;37.428;-121.972;2022-09-14T00:36:03;4.05;;;1.80;;
50779;SDS011;36748;37.428;-121.972;2022-09-14T00:38:34;2.72;;;1.63;;
50779;SDS011;36748;37.428;-121.972;2022-09-14T00:41:00;3.90;;;1.92;;
50779;SDS011;36748;37.428;-121.972;2022-09-14T00:43:27;2.50;;;1.40;;
50779;SDS011;36748;37.428;-121.972;2022-09-14T00:45:53;4.53;;;2.13;;
50779;SDS011;36748;37.428;-121.972;2022-09-14T00:48:19;7.13;;;1.80;;
50779;SDS011;36748;37.428;-121.972;2022-09-14T00:50:48;5.50;;;1.75;;
50779;SDS011;36748;37.428;-121.972;2022-09-14T00:53:14;3.25;;;1.83;;
50779;SDS011;36748;37.428;-121.972;2022-09-14T00:55:40;5.40;;;1.92;;
50779;SDS011;36748;37.428;-121.972;2022-09-14T00:58:07;6.93;;;1.90;;
50779;SDS011;36748;37.428;-121.972;2022-09-14T01:00:33;4.07;;;1.70;;
50779;SDS011;36748;37.428;-121.972;2022-09-14T01:02:59;3.13;;;1.83;;
50779;SDS011;36748;37.428;-121.972;2022-09-14T01:05:33;3.13;;;1.60;;
50779;SDS011;36748;37.428;-121.972;2022-09-14T01:08:18;2.88;;;1.60;;
50779;SDS011;36748;37.428;-121.972;2022-09-14T01:10:58;4.07;;;1.70;;
50779;SDS011;36748;37.428;-121.972;2022-09-14T01:18:59;6.45;;;1.80;;
50779;SDS011;36748;37.428;-121.972;2022-09-14T01:21:32;9.15;;;2.05;;
50779;SDS011;36748;37.428;-121.972;2022-09-14T01:32:12;7.10;;;2.08;;
50779;SDS011;36748;37.428;-121.972;2022-09-14T01:34:46;5.47;;;2.10;;
50779;SDS011;36748;37.428;-121.972;2022-09-14T01:37:28;5.93;;;2.20;;
50779;SDS011;36748;37.428;-121.972;2022-09-14T01:40:27;4.82;;;1.83;;
50779;SDS011;36748;37.428;-121.972;2022-09-14T01:42:56;7.97;;;2.45;;
50779;SDS011;36748;37.428;-121.972;2022-09-14T01:45:25;4.70;;;2.17;;
50779;SDS011;36748;37.428;-121.972;2022-09-14T01:47:56;5.13;;;2.20;;
50779;SDS011;36748;37.428;-121.972;2022-09-14T01:50:32;5.47;;;2.50;;
50779;SDS011;36748;37.428;-121.972;2022-09-14T01:53:08;4.38;;;2.40;;
50779;SDS011;36748;37.428;-121.972;2022-09-14T01:55:39;9.13;;;2.30;;
50779;SDS011;36748;37.428;-121.972;2022-09-14T01:58:40;7.38;;;2.60;;
50779;SDS011;36748;37.428;-121.972;2022-09-14T02:01:14;4.85;;;3.10;;
50779;SDS011;36748;37.428;-121.972;2022-09-14T02:03:45;5.60;;;2.70;;
50779;SDS011;36748;37.428;-121.972;2022-09-14T02:06:16;6.03;;;2.65;;
50779;SDS011;36748;37.428;-121.972;2022-09-14T02:08:47;6.57;;;2.92;;
50779;SDS011;36748;37.428;-121.972;2022-09-14T02:11:13;6.15;;;2.90;;
50779;SDS011;36748;37.428;-121.972;2022-09-14T02:13:39;10.32;;;2.90;;
50779;SDS011;36748;37.428;-121.972;2022-09-14T02:16:05;9.52;;;2.88;;
50779;SDS011;36748;37.428;-121.972;2022-09-14T02:18:31;8.25;;;3.05;;
50779;SDS011;36748;37.428;-121.972;2022-09-14T02:21:02;8.77;;;3.30;;
50779;SDS011;36748;37.428;-121.972;2022-09-14T02:23:31;10.88;;;2.97;;
50779;SDS011;36748;37.428;-121.972;2022-09-14T02:25:57;9.75;;;3.60;;
50779;SDS011;36748;37.428;-121.972;2022-09-14T02:28:23;9.95;;;3.10;;
50779;SDS011;36748;37.428;-121.972;2022-09-14T02:42:16;4.63;;;2.63;;
50779;SDS011;36748;37.428;-121.972;2022-09-14T02:50:50;6.28;;;3.20;;
50779;SDS011;36748;37.428;-121.972;2022-09-14T02:53:29;5.43;;;3.10;;
50779;SDS011;36748;37.428;-121.972;2022-09-14T02:56:02;6.28;;;3.10;;
50779;SDS011;36748;37.428;-121.972;2022-09-14T02:58:33;8.52;;;3.80;;
50779;SDS011;36748;37.428;-121.972;2022-09-14T03:01:04;7.53;;;2.90;;
50779;SDS011;36748;37.428;-121.972;2022-09-14T03:03:31;5.25;;;3.40;;
50779;SDS011;36748;37.428;-121.972;2022-09-14T03:05:57;3.45;;;2.90;;
50779;SDS011;36748;37.428;-121.972;2022-09-14T03:08:24;5.80;;;3.30;;
50779;SDS011;36748;37.428;-121.972;2022-09-14T03:10:51;3.50;;;2.80;;
50779;SDS011;36748;37.428;-121.972;2022-09-14T03:13:17;4.00;;;2.95;;
50779;SDS011;36748;37.428;-121.972;2022-09-14T03:15:43;4.07;;;2.90;;
50779;SDS011;36748;37.428;-121.972;2022-09-14T03:18:09;5.03;;;2.92;;
50779;SDS011;36748;37.428;-121.972;2022-09-14T03:20:36;4.55;;;3.03;;
50779;SDS011;36748;37.428;-121.972;2022-09-14T03:23:05;6.80;;;3.17;;
50779;SDS011;36748;37.428;-121.972;2022-09-14T03:25:37;3.53;;;2.88;;
50779;SDS011;36748;37.428;-121.972;2022-09-14T03:28:04;4.15;;;2.80;;
50779;SDS011;36748;37.428;-121.972;2022-09-14T03:30:31;3.35;;;2.70;;
50779;SDS011;36748;37.428;-121.972;2022-09-14T03:32:58;3.72;;;2.95;;
50779;SDS011;36748;37.428;-121.972;2022-09-14T03:35:24;4.13;;;2.80;;
50779;SDS011;36748;37.428;-121.972;2022-09-14T03:37:51;4.15;;;2.80;;
50779;SDS011;36748;37.428;-121.972;2022-09-14T03:40:17;5.88;;;2.72;;
50779;SDS011;36748;37.428;-121.972;2022-09-14T03:42:47;4.25;;;2.90;;
50779;SDS011;36748;37.428;-121.972;2022-09-14T03:45:14;3.53;;;2.85;;
50779;SDS011;36748;37.428;-121.972;2022-09-14T03:47:41;2.90;;;2.60;;
50779;SDS011;36748;37.428;-121.972;2022-09-14T03:50:08;3.20;;;2.72;;
50779;SDS011;36748;37.428;-121.972;2022-09-14T03:52:35;2.97;;;2.50;;
50779;SDS011;36748;37.428;-121.972;2022-09-14T03:55:03;2.88;;;2.60;;
50779;SDS011;36748;37.428;-121.972;2022-09-14T03:57:29;2.88;;;2.53;;
50779;SDS011;36748;37.428;-121.972;2022-09-14T03:59:57;3.42;;;2.80;;
50779;SDS011;36748;37.428;-121.972;2022-09-14T04:02:23;2.83;;;2.58;;
50779;SDS011;36748;37.428;-121.972;2022-09-14T04:04:53;3.13;;;2.53;;
50779;SDS011;36748;37.428;-121.972;2022-09-14T04:07:30;3.55;;;2.78;;
50779;SDS011;36748;37.428;-121.972;2022-09-14T04:10:06;2.60;;;2.40;;
50779;SDS011;36748;37.428;-121.972;2022-09-14T04:12:36;5.95;;;3.03;;
50779;SDS011;36748;37.428;-121.972;2022-09-14T04:15:04;5.10;;;3.20;;
50779;SDS011;36748;37.428;-121.972;2022-09-14T04:17:33;5.20;;;2.90;;
50779;SDS011;36748;37.428;-121.972;2022-09-14T04:19:59;6.03;;;2.58;;
50779;SDS011;36748;37.428;-121.972;2022-09-14T04:22:25;7.53;;;2.78;;
50779;SDS011;36748;37.428;-121.972;2022-09-14T04:24:52;5.57;;;2.90;;
50779;SDS011;36748;37.428;-121.972;2022-09-14T04:27:18;4.85;;;2.80;;
50779;SDS011;36748;37.428;-121.972;2022-09-14T04:29:44;3.90;;;2.95;;
50779;SDS011;36748;37.428;-121.972;2022-09-14T04:32:14;4.38;;;2.60;;
50779;SDS011;36748;37.428;-121.972;2022-09-14T04:34:41;3.78;;;2.95;;
50779;SDS011;36748;37.428;-121.972;2022-09-14T04:37:07;5.97;;;2.90;;
50779;SDS011;36748;37.428;-121.972;2022-09-14T04:39:33;9.18;;;3.00;;
50779;SDS011;36748;37.428;-121.972;2022-09-14T04:42:00;4.68;;;2.90;;
50779;SDS011;36748;37.428;-121.972;2022-09-14T04:44:26;3.80;;;2.45;;
50779;SDS011;36748;37.428;-121.972;2022-09-14T04:46:52;7.65;;;2.97;;
50779;SDS011;36748;37.428;-121.972;2022-09-14T04:49:19;2.97;;;2.58;;
50779;SDS011;36748;37.428;-121.972;2022-09-14T04:51:45;2.60;;;2.40;;
50779;SDS011;36748;37.428;-121.972;2022-09-14T04:54:12;3.10;;;2.50;;
50779;SDS011;36748;37.428;-121.972;2022-09-14T04:56:40;3.22;;;2.50;;
50779;SDS011;36748;37.428;-121.972;2022-09-14T04:59:06;3.28;;;2.80;;
50779;SDS011;36748;37.428;-121.972;2022-09-14T05:01:33;3.97;;;2.85;;
50779;SDS011;36748;37.428;-121.972;2022-09-14T05:04:05;4.35;;;2.83;;
50779;SDS011;36748;37.428;-121.972;2022-09-14T05:06:32;4.07;;;2.72;;
50779;SDS011;36748;37.428;-121.972;2022-09-14T05:09:00;2.45;;;2.25;;
50779;SDS011;36748;37.428;-121.972;2022-09-14T05:11:28;4.20;;;2.70;;
50779;SDS011;36748;37.428;-121.972;2022-09-14T05:13:56;3.03;;;2.60;;
50779;SDS011;36748;37.428;-121.972;2022-09-14T05:16:24;6.05;;;2.40;;
50779;SDS011;36748;37.428;-121.972;2022-09-14T05:18:52;3.72;;;2.53;;
50779;SDS011;36748;37.428;-121.972;2022-09-14T05:21:19;3.03;;;2.10;;
50779;SDS011;36748;37.428;-121.972;2022-09-14T05:23:46;4.93;;;2.55;;
50779;SDS011;36748;37.428;-121.972;2022-09-14T05:26:13;5.05;;;2.42;;
50779;SDS011;36748;37.428;-121.972;2022-09-14T05:28:39;11.00;;;2.53;;
50779;SDS011;36748;37.428;-121.972;2022-09-14T05:31:06;5.38;;;2.63;;
50779;SDS011;36748;37.428;-121.972;2022-09-14T05:33:34;3.20;;;2.40;;
50779;SDS011;36748;37.428;-121.972;2022-09-14T05:36:05;3.75;;;2.40;;
50779;SDS011;36748;37.428;-121.972;2022-09-14T05:38:32;3.30;;;2.42;;
50779;SDS011;36748;37.428;-121.972;2022-09-14T05:41:00;3.15;;;2.28;;
50779;SDS011;36748;37.428;-121.972;2022-09-14T05:43:27;4.03;;;2.42;;
50779;SDS011;36748;37.428;-121.972;2022-09-14T05:45:54;3.13;;;2.45;;
50779;SDS011;36748;37.428;-121.972;2022-09-14T05:48:20;2.20;;;2.00;;
50779;SDS011;36748;37.428;-121.972;2022-09-14T05:50:46;4.95;;;2.60;;
50779;SDS011;36748;37.428;-121.972;2022-09-14T05:53:12;4.50;;;2.40;;
50779;SDS011;36748;37.428;-121.972;2022-09-14T05:55:39;3.42;;;2.28;;
50779;SDS011;36748;37.428;-121.972;2022-09-14T05:58:05;2.63;;;2.13;;
50779;SDS011;36748;37.428;-121.972;2022-09-14T06:00:31;3.17;;;2.10;;
50779;SDS011;36748;37.428;-121.972;2022-09-14T06:03:00;4.03;;;2.45;;
50779;SDS011;36748;37.428;-121.972;2022-09-14T06:05:26;5.18;;;2.65;;
50779;SDS011;36748;37.428;-121.972;2022-09-14T06:07:52;3.33;;;2.10;;
50779;SDS011;36748;37.428;-121.972;2022-09-14T06:10:19;3.00;;;2.42;;
50779;SDS011;36748;37.428;-121.972;2022-09-14T06:12:46;6.45;;;2.53;;
50779;SDS011;36748;37.428;-121.972;2022-09-14T06:15:12;2.55;;;2.17;;
50779;SDS011;36748;37.428;-121.972;2022-09-14T06:17:39;2.53;;;2.30;;
50779;SDS011;36748;37.428;-121.972;2022-09-14T06:20:05;2.97;;;2.40;;
50779;SDS011;36748;37.428;-121.972;2022-09-14T06:22:35;2.38;;;2.17;;
50779;SDS011;36748;37.428;-121.972;2022-09-14T06:25:04;3.60;;;2.28;;
50779;SDS011;36748;37.428;-121.972;2022-09-14T06:27:31;3.65;;;2.42;;
50779;SDS011;36748;37.428;-121.972;2022-09-14T06:29:57;2.90;;;2.20;;
50779;SDS011;36748;37.428;-121.972;2022-09-14T06:32:23;2.70;;;2.50;;
50779;SDS011;36748;37.428;-121.972;2022-09-14T06:34:51;4.50;;;2.60;;
50779;SDS011;36748;37.428;-121.972;2022-09-14T06:37:17;4.13;;;2.47;;
50779;SDS011;36748;37.428;-121.972;2022-09-14T06:39:43;3.38;;;2.45;;
50779;SDS011;36748;37.428;-121.972;2022-09-14T06:42:10;3.05;;;2.28;;
50779;SDS011;36748;37.428;-121.972;2022-09-14T06:44:36;2.95;;;2.20;;
50779;SDS011;36748;37.428;-121.972;2022-09-14T06:47:02;5.30;;;2.83;;
50779;SDS011;36748;37.428;-121.972;2022-09-14T06:49:28;3.65;;;2.50;;
50779;SDS011;36748;37.428;-121.972;2022-09-14T06:52:03;5.20;;;2.70;;
50779;SDS011;36748;37.428;-121.972;2022-09-14T06:54:29;3.15;;;2.20;;
50779;SDS011;36748;37.428;-121.972;2022-09-14T06:56:56;3.58;;;2.15;;
50779;SDS011;36748;37.428;-121.972;2022-09-14T06:59:22;3.78;;;2.13;;
50779;SDS011;36748;37.428;-121.972;2022-09-14T07:01:48;2.42;;;2.13;;
50779;SDS011;36748;37.428;-121.972;2022-09-14T07:04:15;2.20;;;2.00;;
50779;SDS011;36748;37.428;-121.972;2022-09-14T07:06:45;2.50;;;2.30;;
50779;SDS011;36748;37.428;-121.972;2022-09-14T07:09:13;2.30;;;2.10;;
50779;SDS011;36748;37.428;-121.972;2022-09-14T07:11:40;4.00;;;2.00;;
50779;SDS011;36748;37.428;-121.972;2022-09-14T07:14:07;3.13;;;2.38;;
50779;SDS011;36748;37.428;-121.972;2022-09-14T07:16:36;2.25;;;2.05;;
50779;SDS011;36748;37.428;-121.972;2022-09-14T07:19:04;2.67;;;2.10;;
50779;SDS011;36748;37.428;-121.972;2022-09-14T07:21:34;3.00;;;2.40;;
50779;SDS011;36748;37.428;-121.972;2022-09-14T07:24:01;2.35;;;2.15;;
50779;SDS011;36748;37.428;-121.972;2022-09-14T07:26:29;2.47;;;2.08;;
50779;SDS011;36748;37.428;-121.972;2022-09-14T07:29:00;2.65;;;2.17;;
50779;SDS011;36748;37.428;-121.972;2022-09-14T07:31:33;2.78;;;2.47;;
50779;SDS011;36748;37.428;-121.972;2022-09-14T07:34:22;3.45;;;2.30;;
50779;SDS011;36748;37.428;-121.972;2022-09-14T07:36:49;2.95;;;2.33;;
50779;SDS011;36748;37.428;-121.972;2022-09-14T07:39:16;2.20;;;2.00;;
50779;SDS011;36748;37.428;-121.972;2022-09-14T07:41:42;2.70;;;2.17;;
50779;SDS011;36748;37.428;-121.972;2022-09-14T07:44:08;2.65;;;2.30;;
50779;SDS011;36748;37.428;-121.972;2022-09-14T07:46:39;2.42;;;2.22;;
50779;SDS011;36748;37.428;-121.972;2022-09-14T07:49:07;3.28;;;2.40;;
50779;SDS011;36748;37.428;-121.972;2022-09-14T07:51:35;2.50;;;2.08;;
50779;SDS011;36748;37.428;-121.972;2022-09-14T07:54:01;3.17;;;2.60;;
50779;SDS011;36748;37.428;-121.972;2022-09-14T07:56:29;15.50;;;2.40;;
50779;SDS011;36748;37.428;-121.972;2022-09-14T07:58:55;2.65;;;2.10;;
50779;SDS011;36748;37.428;-121.972;2022-09-14T08:01:22;4.53;;;2.60;;
50779;SDS011;36748;37.428;-121.972;2022-09-14T08:03:49;3.13;;;2.13;;
50779;SDS011;36748;37.428;-121.972;2022-09-14T08:06:20;3.05;;;2.10;;
50779;SDS011;36748;37.428;-121.972;2022-09-14T08:08:49;4.03;;;2.50;;
50779;SDS011;36748;37.428;-121.972;2022-09-14T08:11:18;2.40;;;2.03;;
50779;SDS011;36748;37.428;-121.972;2022-09-14T08:13:48;2.45;;;2.17;;
50779;SDS011;36748;37.428;-121.972;2022-09-14T08:16:16;4.90;;;2.35;;
50779;SDS011;36748;37.428;-121.972;2022-09-14T08:18:43;2.75;;;2.08;;
50779;SDS011;36748;37.428;-121.972;2022-09-14T08:21:13;2.60;;;2.28;;
50779;SDS011;36748;37.428;-121.972;2022-09-14T08:23:41;4.40;;;2.10;;
50779;SDS011;36748;37.428;-121.972;2022-09-14T08:26:09;2.45;;;1.98;;
50779;SDS011;36748;37.428;-121.972;2022-09-14T08:28:37;2.60;;;2.20;;
50779;SDS011;36748;37.428;-121.972;2022-09-14T08:33:31;2.15;;;1.92;;
50779;SDS011;36748;37.428;-121.972;2022-09-14T08:35:59;3.08;;;1.98;;
50779;SDS011;36748;37.428;-121.972;2022-09-14T08:38:25;4.13;;;2.30;;
50779;SDS011;36748;37.428;-121.972;2022-09-14T08:40:51;2.63;;;2.20;;
50779;SDS011;36748;37.428;-121.972;2022-09-14T08:43:18;2.53;;;2.28;;
50779;SDS011;36748;37.428;-121.972;2022-09-14T08:45:46;3.28;;;2.35;;
50779;SDS011;36748;37.428;-121.972;2022-09-14T08:48:16;3.13;;;2.22;;
50779;SDS011;36748;37.428;-121.972;2022-09-14T08:50:54;3.00;;;2.10;;
50779;SDS011;36748;37.428;-121.972;2022-09-14T08:53:21;2.40;;;2.10;;
50779;SDS011;36748;37.428;-121.972;2022-09-14T08:55:48;2.30;;;2.10;;
50779;SDS011;36748;37.428;-121.972;2022-09-14T09:06:56;3.08;;;2.35;;
50779;SDS011;36748;37.428;-121.972;2022-09-14T09:12:01;3.00;;;2.47;;
50779;SDS011;36748;37.428;-121.972;2022-09-14T09:16:59;3.78;;;2.30;;
50779;SDS011;36748;37.428;-121.972;2022-09-14T09:19:29;2.95;;;2.30;;
50779;SDS011;36748;37.428;-121.972;2022-09-14T09:22:00;3.30;;;2.38;;
50779;SDS011;36748;37.428;-121.972;2022-09-14T09:24:44;3.78;;;2.33;;
50779;SDS011;36748;37.428;-121.972;2022-09-14T09:27:15;2.30;;;2.05;;
50779;SDS011;36748;37.428;-121.972;2022-09-14T09:29:41;2.80;;;2.55;;
50779;SDS011;36748;37.428;-121.972;2022-09-14T09:32:18;2.85;;;2.30;;
50779;SDS011;36748;37.428;-121.972;2022-09-14T09:34:47;2.97;;;2.35;;
50779;SDS011;36748;37.428;-121.972;2022-09-14T09:37:18;2.33;;;2.13;;
50779;SDS011;36748;37.428;-121.972;2022-09-14T09:39:47;4.80;;;2.60;;
50779;SDS011;36748;37.428;-121.972;2022-09-14T09:42:24;3.30;;;2.60;;
50779;SDS011;36748;37.428;-121.972;2022-09-14T09:44:53;2.92;;;2.55;;
50779;SDS011;36748;37.428;-121.972;2022-09-14T09:50:15;3.28;;;2.40;;
50779;SDS011;36748;37.428;-121.972;2022-09-14T09:52:53;2.60;;;2.40;;
50779;SDS011;36748;37.428;-121.972;2022-09-14T09:55:22;2.92;;;2.63;;
50779;SDS011;36748;37.428;-121.972;2022-09-14T09:57:51;3.25;;;2.50;;
50779;SDS011;36748;37.428;-121.972;2022-09-14T10:00:25;3.85;;;2.53;;
50779;SDS011;36748;37.428;-121.972;2022-09-14T10:02:54;2.97;;;2.53;;
50779;SDS011;36748;37.428;-121.972;2022-09-14T10:05:25;2.90;;;2.50;;
50779;SDS011;36748;37.428;-121.972;2022-09-14T10:08:00;3.60;;;2.75;;
50779;SDS011;36748;37.428;-121.972;2022-09-14T10:13:02;3.50;;;2.85;;
50779;SDS011;36748;37.428;-121.972;2022-09-14T10:15:30;3.03;;;2.72;;
50779;SDS011;36748;37.428;-121.972;2022-09-14T10:20:37;3.35;;;2.80;;
50779;SDS011;36748;37.428;-121.972;2022-09-14T10:25:52;3.50;;;2.92;;
50779;SDS011;36748;37.428;-121.972;2022-09-14T10:28:40;2.97;;;2.50;;
50779;SDS011;36748;37.428;-121.972;2022-09-14T10:33:36;3.55;;;3.05;;
50779;SDS011;36748;37.428;-121.972;2022-09-14T10:41:03;3.83;;;2.90;;
50779;SDS011;36748;37.428;-121.972;2022-09-14T10:49:40;6.15;;;3.30;;
50779;SDS011;36748;37.428;-121.972;2022-09-14T10:56:05;3.50;;;3.13;;
50779;SDS011;36748;37.428;-121.972;2022-09-14T11:00:51;4.97;;;3.20;;
50779;SDS011;36748;37.428;-121.972;2022-09-14T11:06:02;4.70;;;3.22;;
50779;SDS011;36748;37.428;-121.972;2022-09-14T11:08:39;3.65;;;3.15;;
50779;SDS011;36748;37.428;-121.972;2022-09-14T11:11:14;3.75;;;2.90;;
50779;SDS011;36748;37.428;-121.972;2022-09-14T11:18:49;4.95;;;3.35;;
50779;SDS011;36748;37.428;-121.972;2022-09-14T11:21:45;2.90;;;2.60;;
50779;SDS011;36748;37.428;-121.972;2022-09-14T11:24:16;3.55;;;3.03;;
50779;SDS011;36748;37.428;-121.972;2022-09-14T11:29:23;4.95;;;3.03;;
50779;SDS011;36748;37.428;-121.972;2022-09-14T11:35:00;3.38;;;3.08;;
50779;SDS011;36748;37.428;-121.972;2022-09-14T11:37:33;4.85;;;2.97;;
50779;SDS011;36748;37.428;-121.972;2022-09-14T11:40:05;3.08;;;2.88;;
50779;SDS011;36748;37.428;-121.972;2022-09-14T11:54:23;3.20;;;2.80;;
50779;SDS011;36748;37.428;-121.972;2022-09-14T11:56:51;4.05;;;3.05;;
50779;SDS011;36748;37.428;-121.972;2022-09-14T12:08:24;3.25;;;2.97;;
50779;SDS011;36748;37.428;-121.972;2022-09-14T12:10:20;3.33;;;2.70;;
50779;SDS011;36748;37.428;-121.972;2022-09-14T12:12:55;2.90;;;2.70;;
50779;SDS011;36748;37.428;-121.972;2022-09-14T12:23:03;3.50;;;3.10;;
50779;SDS011;36748;37.428;-121.972;2022-09-14T12:25:31;3.35;;;2.97;;
50779;SDS011;36748;37.428;-121.972;2022-09-14T12:27:59;3.00;;;2.80;;
50779;SDS011;36748;37.428;-121.972;2022-09-14T12:33:51;3.60;;;3.13;;
50779;SDS011;36748;37.428;-121.972;2022-09-14T12:35:59;3.10;;;2.80;;
50779;SDS011;36748;37.428;-121.972;2022-09-14T12:41:01;3.10;;;2.80;;
50779;SDS011;36748;37.428;-121.972;2022-09-14T13:04:58;5.30;;;2.72;;
50779;SDS011;36748;37.428;-121.972;2022-09-14T13:07:27;3.38;;;2.97;;
50779;SDS011;36748;37.428;-121.972;2022-09-14T13:09:56;4.78;;;3.03;;
50779;SDS011;36748;37.428;-121.972;2022-09-14T13:15:02;6.30;;;3.17;;
50779;SDS011;36748;37.428;-121.972;2022-09-14T13:17:42;3.70;;;3.10;;
50779;SDS011;36748;37.428;-121.972;2022-09-14T13:20:27;6.20;;;3.28;;
50779;SDS011;36748;37.428;-121.972;2022-09-14T13:22:57;3.25;;;2.95;;
50779;SDS011;36748;37.428;-121.972;2022-09-14T13:25:25;3.90;;;3.50;;
50779;SDS011;36748;37.428;-121.972;2022-09-14T13:27:53;3.55;;;3.20;;
50779;SDS011;36748;37.428;-121.972;2022-09-14T13:30:21;4.40;;;3.60;;
50779;SDS011;36748;37.428;-121.972;2022-09-14T13:32:50;3.72;;;3.33;;
50779;SDS011;36748;37.428;-121.972;2022-09-14T13:35:29;3.28;;;3.00;;
50779;SDS011;36748;37.428;-121.972;2022-09-14T13:37:57;3.78;;;3.40;;
50779;SDS011;36748;37.428;-121.972;2022-09-14T13:40:25;4.18;;;3.42;;
50779;SDS011;36748;37.428;-121.972;2022-09-14T13:42:54;7.75;;;3.58;;
50779;SDS011;36748;37.428;-121.972;2022-09-14T13:45:23;5.38;;;3.17;;
50779;SDS011;36748;37.428;-121.972;2022-09-14T13:47:50;4.82;;;3.95;;
50779;SDS011;36748;37.428;-121.972;2022-09-14T13:50:17;3.97;;;3.58;;
50779;SDS011;36748;37.428;-121.972;2022-09-14T13:52:45;4.40;;;4.00;;
50779;SDS011;36748;37.428;-121.972;2022-09-14T13:55:17;7.03;;;4.32;;
50779;SDS011;36748;37.428;-121.972;2022-09-14T14:00:56;5.22;;;4.07;;
50779;SDS011;36748;37.428;-121.972;2022-09-14T14:03:25;9.63;;;4.07;;
50779;SDS011;36748;37.428;-121.972;2022-09-14T14:05:54;5.82;;;4.25;;
50779;SDS011;36748;37.428;-121.972;2022-09-14T14:08:31;5.90;;;4.25;;
50779;SDS011;36748;37.428;-121.972;2022-09-14T14:11:01;5.28;;;3.97;;
50779;SDS011;36748;37.428;-121.972;2022-09-14T14:13:30;5.10;;;4.55;;
50779;SDS011;36748;37.428;-121.972;2022-09-14T14:16:14;4.95;;;4.38;;
50779;SDS011;36748;37.428;-121.972;2022-09-14T14:18:48;7.70;;;4.00;;
50779;SDS011;36748;37.428;-121.972;2022-09-14T14:23:50;5.65;;;4.20;;
50779;SDS011;36748;37.428;-121.972;2022-09-14T14:26:21;5.85;;;4.15;;
50779;SDS011;36748;37.428;-121.972;2022-09-14T14:28:51;8.88;;;4.30;;
50779;SDS011;36748;37.428;-121.972;2022-09-14T14:31:19;6.78;;;4.47;;
50779;SDS011;36748;37.428;-121.972;2022-09-14T14:33:50;10.07;;;4.80;;
50779;SDS011;36748;37.428;-121.972;2022-09-14T14:36:17;10.82;;;5.13;;
50779;SDS011;36748;37.428;-121.972;2022-09-14T14:38:44;5.10;;;4.60;;
50779;SDS011;36748;37.428;-121.972;2022-09-14T14:41:13;7.63;;;4.80;;
50779;SDS011;36748;37.428;-121.972;2022-09-14T14:43:44;5.15;;;4.60;;
50779;SDS011;36748;37.428;-121.972;2022-09-14T14:46:11;8.75;;;4.75;;
50779;SDS011;36748;37.428;-121.972;2022-09-14T14:48:39;7.18;;;4.63;;
50779;SDS011;36748;37.428;-121.972;2022-09-14T14:51:05;6.85;;;5.20;;
50779;SDS011;36748;37.428;-121.972;2022-09-14T14:53:34;5.75;;;4.60;;
50779;SDS011;36748;37.428;-121.972;2022-09-14T14:56:01;9.73;;;5.25;;
50779;SDS011;36748;37.428;-121.972;2022-09-14T14:58:27;6.20;;;5.20;;
50779;SDS011;36748;37.428;-121.972;2022-09-14T15:00:53;7.03;;;5.07;;
50779;SDS011;36748;37.428;-121.972;2022-09-14T15:03:20;7.65;;;5.43;;
50779;SDS011;36748;37.428;-121.972;2022-09-14T15:05:46;8.50;;;5.00;;
50779;SDS011;36748;37.428;-121.972;2022-09-14T15:08:14;7.28;;;5.47;;
50779;SDS011;36748;37.428;-121.972;2022-09-14T15:10:41;11.85;;;5.50;;
50779;SDS011;36748;37.428;-121.972;2022-09-14T15:13:08;7.53;;;5.47;;
50779;SDS011;36748;37.428;-121.972;2022-09-14T15:15:38;7.82;;;5.03;;
50779;SDS011;36748;37.428;-121.972;2022-09-14T15:18:06;5.60;;;4.70;;
50779;SDS011;36748;37.428;-121.972;2022-09-14T15:20:32;7.60;;;5.45;;
50779;SDS011;36748;37.428;-121.972;2022-09-14T15:22:59;7.07;;;5.55;;
50779;SDS011;36748;37.428;-121.972;2022-09-14T15:25:25;10.10;;;5.45;;
50779;SDS011;36748;37.428;-121.972;2022-09-14T15:27:52;8.88;;;5.50;;
50779;SDS011;36748;37.428;-121.972;2022-09-14T15:30:18;7.05;;;5.43;;
50779;SDS011;36748;37.428;-121.972;2022-09-14T15:32:44;7.32;;;5.03;;
50779;SDS011;36748;37.428;-121.972;2022-09-14T15:35:13;7.68;;;4.97;;
50779;SDS011;36748;37.428;-121.972;2022-09-14T15:37:40;7.18;;;4.75;;
50779;SDS011;36748;37.428;-121.972;2022-09-14T15:40:06;8.25;;;5.25;;
50779;SDS011;36748;37.428;-121.972;2022-09-14T15:42:33;7.85;;;5.35;;
50779;SDS011;36748;37.428;-121.972;2022-09-14T15:44:59;8.07;;;5.05;;
50779;SDS011;36748;37.428;-121.972;2022-09-14T15:47:25;11.93;;;5.43;;
50779;SDS011;36748;37.428;-121.972;2022-09-14T15:49:54;7.97;;;5.18;;
50779;SDS011;36748;37.428;-121.972;2022-09-14T15:52:20;12.45;;;5.15;;
50779;SDS011;36748;37.428;-121.972;2022-09-14T15:54:46;8.38;;;5.72;;
50779;SDS011;36748;37.428;-121.972;2022-09-14T15:57:13;7.88;;;5.43;;
50779;SDS011;36748;37.428;-121.972;2022-09-14T15:59:39;9.65;;;5.72;;
50779;SDS011;36748;37.428;-121.972;2022-09-14T16:02:05;6.10;;;4.90;;
50779;SDS011;36748;37.428;-121.972;2022-09-14T16:04:35;7.30;;;5.53;;
50779;SDS011;36748;37.428;-121.972;2022-09-14T16:07:02;9.60;;;4.82;;
50779;SDS011;36748;37.428;-121.972;2022-09-14T16:09:34;6.43;;;5.00;;
50779;SDS011;36748;37.428;-121.972;2022-09-14T16:12:01;7.35;;;4.90;;
50779;SDS011;36748;37.428;-121.972;2022-09-14T16:14:28;7.82;;;5.15;;
50779;SDS011;36748;37.428;-121.972;2022-09-14T16:16:54;5.70;;;4.82;;
50779;SDS011;36748;37.428;-121.972;2022-09-14T16:19:20;5.55;;;4.90;;
50779;SDS011;36748;37.428;-121.972;2022-09-14T16:21:46;7.38;;;5.20;;
50779;SDS011;36748;37.428;-121.972;2022-09-14T16:24:14;5.85;;;5.25;;
50779;SDS011;36748;37.428;-121.972;2022-09-14T16:26:42;8.93;;;4.95;;
50779;SDS011;36748;37.428;-121.972;2022-09-14T16:29:10;6.88;;;5.20;;
50779;SDS011;36748;37.428;-121.972;2022-09-14T16:31:38;5.30;;;4.80;;
50779;SDS011;36748;37.428;-121.972;2022-09-14T16:34:06;6.15;;;4.72;;
50779;SDS011;36748;37.428;-121.972;2022-09-14T16:36:37;6.45;;;4.72;;
50779;SDS011;36748;37.428;-121.972;2022-09-14T16:39:08;4.85;;;4.30;;
50779;SDS011;36748;37.428;-121.972;2022-09-14T16:41:36;6.53;;;5.07;;
50779;SDS011;36748;37.428;-121.972;2022-09-14T16:44:05;7.22;;;4.75;;
50779;SDS011;36748;37.428;-121.972;2022-09-14T16:46:31;6.15;;;4.78;;
50779;SDS011;36748;37.428;-121.972;2022-09-14T16:49:06;7.18;;;5.13;;
50779;SDS011;36748;37.428;-121.972;2022-09-14T16:51:33;6.70;;;4.60;;
50779;SDS011;36748;37.428;-121.972;2022-09-14T16:54:00;8.82;;;4.88;;